sensor_id;sensor_type;location;lat;lon;timestamp;P1;durP1;ratioP1;P2;durP2;ratioP2
79664;SDS011;69132;44.014;20.918;2023-11-21T00:06:52;54.97;;;28.17;;
79664;SDS011;69132;44.014;20.918;2023-11-21T00:09:19;54.53;;;29.23;;
79664;SDS011;69132;44.014;20.918;2023-11-21T00:11:45;54.42;;;29.77;;
79664;SDS011;69132;44.014;20.918;2023-11-21T00:14:11;52.03;;;28.42;;
79664;SDS011;69132;44.014;20.918;2023-11-21T00:16:37;59.88;;;30.75;;
79664;SDS011;69132;44.014;20.918;2023-11-21T00:19:04;60.55;;;30.83;;
79664;SDS011;69132;44.014;20.918;2023-11-21T00:21:32;55.70;;;30.88;;
79664;SDS011;69132;44.014;20.918;2023-11-21T00:23:58;51.53;;;29.15;;
79664;SDS011;69132;44.014;20.918;2023-11-21T00:26:24;59.60;;;27.80;;
79664;SDS011;69132;44.014;20.918;2023-11-21T00:28:51;53.40;;;28.50;;
79664;SDS011;69132;44.014;20.918;2023-11-21T00:31:17;48.13;;;28.15;;
79664;SDS011;69132;44.014;20.918;2023-11-21T00:33:43;50.33;;;29.52;;
79664;SDS011;69132;44.014;20.918;2023-11-21T00:36:09;55.10;;;29.30;;
79664;SDS011;69132;44.014;20.918;2023-11-21T00:38:36;56.58;;;31.17;;
79664;SDS011;69132;44.014;20.918;2023-11-21T00:43:30;44.42;;;24.05;;
79664;SDS011;69132;44.014;20.918;2023-11-21T00:45:58;48.05;;;26.98;;
79664;SDS011;69132;44.014;20.918;2023-11-21T00:48:24;43.22;;;25.73;;
79664;SDS011;69132;44.014;20.918;2023-11-21T00:50:50;44.90;;;23.67;;
79664;SDS011;69132;44.014;20.918;2023-11-21T00:53:16;40.67;;;20.67;;
79664;SDS011;69132;44.014;20.918;2023-11-21T00:55:42;39.17;;;19.67;;
79664;SDS011;69132;44.014;20.918;2023-11-21T00:58:09;38.70;;;20.02;;
79664;SDS011;69132;44.014;20.918;2023-11-21T01:00:38;37.33;;;19.88;;
79664;SDS011;69132;44.014;20.918;2023-11-21T01:03:04;31.58;;;20.10;;
79664;SDS011;69132;44.014;20.918;2023-11-21T01:05:33;37.63;;;19.57;;
79664;SDS011;69132;44.014;20.918;2023-11-21T01:07:59;39.58;;;17.83;;
79664;SDS011;69132;44.014;20.918;2023-11-21T01:10:25;28.98;;;17.02;;
79664;SDS011;69132;44.014;20.918;2023-11-21T01:12:53;31.88;;;17.90;;
79664;SDS011;69132;44.014;20.918;2023-11-21T01:15:21;31.27;;;18.58;;
79664;SDS011;69132;44.014;20.918;2023-11-21T01:17:51;36.00;;;20.63;;
79664;SDS011;69132;44.014;20.918;2023-11-21T01:20:17;36.85;;;19.52;;
79664;SDS011;69132;44.014;20.918;2023-11-21T01:22:43;37.33;;;21.38;;
79664;SDS011;69132;44.014;20.918;2023-11-21T01:25:10;40.70;;;22.27;;
79664;SDS011;69132;44.014;20.918;2023-11-21T01:27:36;37.53;;;20.23;;
79664;SDS011;69132;44.014;20.918;2023-11-21T01:30:06;51.35;;;26.73;;
79664;SDS011;69132;44.014;20.918;2023-11-21T01:32:33;63.95;;;30.98;;
79664;SDS011;69132;44.014;20.918;2023-11-21T01:35:00;58.60;;;29.83;;
79664;SDS011;69132;44.014;20.918;2023-11-21T01:37:26;55.90;;;28.05;;
79664;SDS011;69132;44.014;20.918;2023-11-21T01:39:53;47.72;;;23.65;;
79664;SDS011;69132;44.014;20.918;2023-11-21T01:42:20;38.80;;;21.42;;
79664;SDS011;69132;44.014;20.918;2023-11-21T01:44:46;33.97;;;18.17;;
79664;SDS011;69132;44.014;20.918;2023-11-21T01:47:13;34.42;;;18.50;;
79664;SDS011;69132;44.014;20.918;2023-11-21T01:49:40;35.17;;;18.38;;
79664;SDS011;69132;44.014;20.918;2023-11-21T01:52:10;28.27;;;15.27;;
79664;SDS011;69132;44.014;20.918;2023-11-21T01:54:37;23.77;;;12.98;;
79664;SDS011;69132;44.014;20.918;2023-11-21T01:57:03;27.23;;;14.57;;
79664;SDS011;69132;44.014;20.918;2023-11-21T01:59:38;23.48;;;13.10;;
79664;SDS011;69132;44.014;20.918;2023-11-21T02:02:04;27.63;;;16.23;;
79664;SDS011;69132;44.014;20.918;2023-11-21T02:04:34;35.88;;;17.20;;
79664;SDS011;69132;44.014;20.918;2023-11-21T02:07:04;34.35;;;17.60;;
79664;SDS011;69132;44.014;20.918;2023-11-21T02:09:35;30.20;;;16.80;;
79664;SDS011;69132;44.014;20.918;2023-11-21T02:12:03;33.07;;;17.37;;
79664;SDS011;69132;44.014;20.918;2023-11-21T02:14:30;34.72;;;17.15;;
79664;SDS011;69132;44.014;20.918;2023-11-21T02:16:57;32.10;;;19.38;;
79664;SDS011;69132;44.014;20.918;2023-11-21T02:19:24;32.13;;;19.52;;
79664;SDS011;69132;44.014;20.918;2023-11-21T02:21:54;36.67;;;20.65;;
79664;SDS011;69132;44.014;20.918;2023-11-21T02:24:23;36.00;;;21.38;;
79664;SDS011;69132;44.014;20.918;2023-11-21T02:26:50;36.05;;;20.70;;
79664;SDS011;69132;44.014;20.918;2023-11-21T02:29:17;31.45;;;18.15;;
79664;SDS011;69132;44.014;20.918;2023-11-21T02:31:43;26.48;;;16.05;;
79664;SDS011;69132;44.014;20.918;2023-11-21T02:34:13;28.40;;;15.68;;
79664;SDS011;69132;44.014;20.918;2023-11-21T02:36:39;28.60;;;15.60;;
79664;SDS011;69132;44.014;20.918;2023-11-21T02:39:07;29.10;;;15.48;;
79664;SDS011;69132;44.014;20.918;2023-11-21T02:41:33;29.67;;;15.18;;
79664;SDS011;69132;44.014;20.918;2023-11-21T02:44:00;28.40;;;14.70;;
79664;SDS011;69132;44.014;20.918;2023-11-21T02:46:26;27.52;;;14.73;;
79664;SDS011;69132;44.014;20.918;2023-11-21T02:48:52;29.63;;;15.07;;
79664;SDS011;69132;44.014;20.918;2023-11-21T02:51:19;27.63;;;13.38;;
79664;SDS011;69132;44.014;20.918;2023-11-21T02:53:45;28.10;;;14.55;;
79664;SDS011;69132;44.014;20.918;2023-11-21T02:56:12;27.10;;;14.73;;
79664;SDS011;69132;44.014;20.918;2023-11-21T02:58:43;23.17;;;13.50;;
79664;SDS011;69132;44.014;20.918;2023-11-21T03:01:10;31.20;;;14.35;;
79664;SDS011;69132;44.014;20.918;2023-11-21T03:03:37;27.05;;;13.30;;
79664;SDS011;69132;44.014;20.918;2023-11-21T03:06:06;20.83;;;12.32;;
79664;SDS011;69132;44.014;20.918;2023-11-21T03:08:33;25.80;;;14.00;;
79664;SDS011;69132;44.014;20.918;2023-11-21T03:10:59;26.38;;;13.23;;
79664;SDS011;69132;44.014;20.918;2023-11-21T03:13:25;26.45;;;13.38;;
79664;SDS011;69132;44.014;20.918;2023-11-21T03:15:51;24.50;;;12.48;;
79664;SDS011;69132;44.014;20.918;2023-11-21T03:18:17;21.98;;;11.60;;
79664;SDS011;69132;44.014;20.918;2023-11-21T03:20:44;20.13;;;11.32;;
79664;SDS011;69132;44.014;20.918;2023-11-21T03:23:12;22.10;;;11.13;;
79664;SDS011;69132;44.014;20.918;2023-11-21T03:25:39;22.42;;;11.93;;
79664;SDS011;69132;44.014;20.918;2023-11-21T03:28:05;17.63;;;10.95;;
79664;SDS011;69132;44.014;20.918;2023-11-21T03:30:33;22.50;;;12.38;;
79664;SDS011;69132;44.014;20.918;2023-11-21T03:32:59;17.77;;;10.93;;
79664;SDS011;69132;44.014;20.918;2023-11-21T03:35:25;20.30;;;12.13;;
79664;SDS011;69132;44.014;20.918;2023-11-21T03:37:52;20.55;;;12.40;;
79664;SDS011;69132;44.014;20.918;2023-11-21T03:40:18;23.98;;;12.95;;
79664;SDS011;69132;44.014;20.918;2023-11-21T03:42:46;23.02;;;12.32;;
79664;SDS011;69132;44.014;20.918;2023-11-21T03:50:47;22.83;;;13.73;;
79664;SDS011;69132;44.014;20.918;2023-11-21T03:53:14;27.67;;;14.18;;
79664;SDS011;69132;44.014;20.918;2023-11-21T03:55:40;28.85;;;13.77;;
79664;SDS011;69132;44.014;20.918;2023-11-21T03:58:07;24.15;;;13.82;;
79664;SDS011;69132;44.014;20.918;2023-11-21T04:00:33;22.38;;;13.07;;
79664;SDS011;69132;44.014;20.918;2023-11-21T04:02:59;28.70;;;14.80;;
79664;SDS011;69132;44.014;20.918;2023-11-21T04:05:25;29.52;;;13.82;;
79664;SDS011;69132;44.014;20.918;2023-11-21T04:08:05;28.00;;;15.75;;
79664;SDS011;69132;44.014;20.918;2023-11-21T04:10:51;24.50;;;13.68;;
79664;SDS011;69132;44.014;20.918;2023-11-21T04:13:18;24.67;;;14.60;;
79664;SDS011;69132;44.014;20.918;2023-11-21T04:15:44;27.23;;;13.65;;
79664;SDS011;69132;44.014;20.918;2023-11-21T04:18:10;25.55;;;15.18;;
79664;SDS011;69132;44.014;20.918;2023-11-21T04:20:36;32.42;;;15.65;;
79664;SDS011;69132;44.014;20.918;2023-11-21T04:23:02;25.73;;;14.90;;
79664;SDS011;69132;44.014;20.918;2023-11-21T04:25:29;24.95;;;14.85;;
79664;SDS011;69132;44.014;20.918;2023-11-21T04:27:55;26.83;;;16.15;;
79664;SDS011;69132;44.014;20.918;2023-11-21T04:30:33;32.25;;;17.42;;
79664;SDS011;69132;44.014;20.918;2023-11-21T04:32:59;34.65;;;18.52;;
79664;SDS011;69132;44.014;20.918;2023-11-21T04:35:28;30.05;;;17.77;;
79664;SDS011;69132;44.014;20.918;2023-11-21T04:37:54;33.00;;;17.73;;
79664;SDS011;69132;44.014;20.918;2023-11-21T04:40:20;30.70;;;16.52;;
79664;SDS011;69132;44.014;20.918;2023-11-21T04:42:46;29.65;;;17.23;;
79664;SDS011;69132;44.014;20.918;2023-11-21T04:45:13;35.25;;;17.15;;
79664;SDS011;69132;44.014;20.918;2023-11-21T04:47:39;29.20;;;16.80;;
79664;SDS011;69132;44.014;20.918;2023-11-21T04:50:05;29.27;;;15.90;;
79664;SDS011;69132;44.014;20.918;2023-11-21T04:52:33;26.77;;;16.33;;
79664;SDS011;69132;44.014;20.918;2023-11-21T04:54:59;26.42;;;15.48;;
79664;SDS011;69132;44.014;20.918;2023-11-21T04:57:27;31.27;;;17.75;;
79664;SDS011;69132;44.014;20.918;2023-11-21T04:59:54;29.13;;;16.73;;
79664;SDS011;69132;44.014;20.918;2023-11-21T05:02:20;33.53;;;16.35;;
79664;SDS011;69132;44.014;20.918;2023-11-21T05:04:47;30.73;;;17.85;;
79664;SDS011;69132;44.014;20.918;2023-11-21T05:07:13;32.67;;;17.85;;
79664;SDS011;69132;44.014;20.918;2023-11-21T05:09:42;28.15;;;15.93;;
79664;SDS011;69132;44.014;20.918;2023-11-21T05:12:11;32.45;;;17.55;;
79664;SDS011;69132;44.014;20.918;2023-11-21T05:14:41;30.90;;;17.15;;
79664;SDS011;69132;44.014;20.918;2023-11-21T05:17:07;33.03;;;18.33;;
79664;SDS011;69132;44.014;20.918;2023-11-21T05:19:34;32.25;;;16.65;;
79664;SDS011;69132;44.014;20.918;2023-11-21T05:22:00;29.77;;;17.70;;
79664;SDS011;69132;44.014;20.918;2023-11-21T05:24:27;32.95;;;17.48;;
79664;SDS011;69132;44.014;20.918;2023-11-21T05:26:53;33.13;;;19.77;;
79664;SDS011;69132;44.014;20.918;2023-11-21T05:29:20;34.00;;;18.15;;
79664;SDS011;69132;44.014;20.918;2023-11-21T05:31:46;34.25;;;19.40;;
79664;SDS011;69132;44.014;20.918;2023-11-21T05:34:13;41.15;;;24.15;;
79664;SDS011;69132;44.014;20.918;2023-11-21T05:36:39;28.63;;;17.63;;
79664;SDS011;69132;44.014;20.918;2023-11-21T05:39:06;32.10;;;18.13;;
79664;SDS011;69132;44.014;20.918;2023-11-21T05:41:33;32.30;;;17.73;;
79664;SDS011;69132;44.014;20.918;2023-11-21T05:43:59;27.77;;;16.65;;
79664;SDS011;69132;44.014;20.918;2023-11-21T05:46:27;33.63;;;17.92;;
79664;SDS011;69132;44.014;20.918;2023-11-21T05:48:54;28.08;;;17.98;;
79664;SDS011;69132;44.014;20.918;2023-11-21T05:51:20;34.28;;;16.70;;
79664;SDS011;69132;44.014;20.918;2023-11-21T05:53:46;38.45;;;20.58;;
79664;SDS011;69132;44.014;20.918;2023-11-21T05:56:12;37.28;;;20.27;;
79664;SDS011;69132;44.014;20.918;2023-11-21T05:58:38;36.85;;;20.20;;
79664;SDS011;69132;44.014;20.918;2023-11-21T06:01:05;33.65;;;18.75;;
79664;SDS011;69132;44.014;20.918;2023-11-21T06:03:37;36.47;;;19.48;;
79664;SDS011;69132;44.014;20.918;2023-11-21T06:06:05;35.35;;;19.67;;
79664;SDS011;69132;44.014;20.918;2023-11-21T06:08:31;33.97;;;18.10;;
79664;SDS011;69132;44.014;20.918;2023-11-21T06:10:59;39.70;;;18.92;;
79664;SDS011;69132;44.014;20.918;2023-11-21T06:13:25;34.65;;;19.20;;
79664;SDS011;69132;44.014;20.918;2023-11-21T06:18:56;34.42;;;19.80;;
79664;SDS011;69132;44.014;20.918;2023-11-21T06:21:22;45.05;;;20.15;;
79664;SDS011;69132;44.014;20.918;2023-11-21T06:23:48;41.67;;;20.60;;
79664;SDS011;69132;44.014;20.918;2023-11-21T06:26:15;36.55;;;19.73;;
79664;SDS011;69132;44.014;20.918;2023-11-21T06:28:46;52.17;;;24.00;;
79664;SDS011;69132;44.014;20.918;2023-11-21T06:31:12;47.92;;;22.67;;
79664;SDS011;69132;44.014;20.918;2023-11-21T06:33:39;48.30;;;24.58;;
79664;SDS011;69132;44.014;20.918;2023-11-21T06:36:05;50.20;;;23.80;;
79664;SDS011;69132;44.014;20.918;2023-11-21T06:38:33;47.63;;;26.25;;
79664;SDS011;69132;44.014;20.918;2023-11-21T06:41:00;61.17;;;30.52;;
79664;SDS011;69132;44.014;20.918;2023-11-21T06:45:56;50.47;;;28.20;;
79664;SDS011;69132;44.014;20.918;2023-11-21T06:48:26;52.25;;;28.20;;
79664;SDS011;69132;44.014;20.918;2023-11-21T06:50:53;55.25;;;27.48;;
79664;SDS011;69132;44.014;20.918;2023-11-21T06:53:19;56.58;;;30.27;;
79664;SDS011;69132;44.014;20.918;2023-11-21T07:00:41;43.63;;;24.70;;
79664;SDS011;69132;44.014;20.918;2023-11-21T07:03:11;48.17;;;26.13;;
79664;SDS011;69132;44.014;20.918;2023-11-21T07:05:39;50.95;;;27.65;;
79664;SDS011;69132;44.014;20.918;2023-11-21T07:08:05;51.58;;;26.90;;
79664;SDS011;69132;44.014;20.918;2023-11-21T07:13:18;57.05;;;28.70;;
79664;SDS011;69132;44.014;20.918;2023-11-21T07:15:44;45.88;;;25.00;;
79664;SDS011;69132;44.014;20.918;2023-11-21T07:18:10;46.03;;;26.42;;
79664;SDS011;69132;44.014;20.918;2023-11-21T07:20:36;62.25;;;28.98;;
79664;SDS011;69132;44.014;20.918;2023-11-21T07:23:02;51.25;;;29.80;;
79664;SDS011;69132;44.014;20.918;2023-11-21T07:25:30;48.85;;;27.52;;
79664;SDS011;69132;44.014;20.918;2023-11-21T07:27:59;49.63;;;27.00;;
79664;SDS011;69132;44.014;20.918;2023-11-21T07:30:30;52.17;;;28.95;;
79664;SDS011;69132;44.014;20.918;2023-11-21T07:32:57;52.88;;;29.73;;
79664;SDS011;69132;44.014;20.918;2023-11-21T07:35:24;66.55;;;32.70;;
79664;SDS011;69132;44.014;20.918;2023-11-21T07:37:53;59.40;;;32.33;;
79664;SDS011;69132;44.014;20.918;2023-11-21T07:40:19;58.33;;;33.72;;
79664;SDS011;69132;44.014;20.918;2023-11-21T07:42:46;65.97;;;33.70;;
79664;SDS011;69132;44.014;20.918;2023-11-21T07:45:15;55.00;;;32.40;;
79664;SDS011;69132;44.014;20.918;2023-11-21T07:50:33;61.50;;;33.63;;
79664;SDS011;69132;44.014;20.918;2023-11-21T07:52:59;67.65;;;36.00;;
79664;SDS011;69132;44.014;20.918;2023-11-21T07:55:31;68.22;;;36.92;;
79664;SDS011;69132;44.014;20.918;2023-11-21T07:57:58;60.55;;;31.58;;
79664;SDS011;69132;44.014;20.918;2023-11-21T08:00:25;51.08;;;28.85;;
79664;SDS011;69132;44.014;20.918;2023-11-21T08:02:55;43.22;;;25.38;;
79664;SDS011;69132;44.014;20.918;2023-11-21T08:05:21;41.25;;;24.95;;
79664;SDS011;69132;44.014;20.918;2023-11-21T08:07:54;40.40;;;24.13;;
79664;SDS011;69132;44.014;20.918;2023-11-21T08:10:21;39.65;;;23.48;;
79664;SDS011;69132;44.014;20.918;2023-11-21T08:12:47;44.55;;;22.80;;
79664;SDS011;69132;44.014;20.918;2023-11-21T08:18:00;37.50;;;21.55;;
79664;SDS011;69132;44.014;20.918;2023-11-21T08:20:26;38.15;;;23.88;;
79664;SDS011;69132;44.014;20.918;2023-11-21T08:22:55;36.70;;;22.17;;
79664;SDS011;69132;44.014;20.918;2023-11-21T08:25:22;44.17;;;22.55;;
79664;SDS011;69132;44.014;20.918;2023-11-21T08:27:51;44.95;;;23.70;;
79664;SDS011;69132;44.014;20.918;2023-11-21T08:30:20;43.25;;;23.17;;
79664;SDS011;69132;44.014;20.918;2023-11-21T08:32:48;34.33;;;20.35;;
79664;SDS011;69132;44.014;20.918;2023-11-21T08:35:16;61.40;;;22.55;;
79664;SDS011;69132;44.014;20.918;2023-11-21T08:37:42;40.67;;;25.65;;
79664;SDS011;69132;44.014;20.918;2023-11-21T08:42:42;41.58;;;23.60;;
79664;SDS011;69132;44.014;20.918;2023-11-21T08:47:38;42.22;;;25.38;;
79664;SDS011;69132;44.014;20.918;2023-11-21T08:52:59;50.70;;;28.30;;
79664;SDS011;69132;44.014;20.918;2023-11-21T08:55:25;61.67;;;31.70;;
79664;SDS011;69132;44.014;20.918;2023-11-21T08:57:52;60.00;;;30.65;;
79664;SDS011;69132;44.014;20.918;2023-11-21T09:00:18;63.67;;;32.67;;
79664;SDS011;69132;44.014;20.918;2023-11-21T09:02:44;58.17;;;32.50;;
79664;SDS011;69132;44.014;20.918;2023-11-21T09:05:12;65.28;;;34.63;;
79664;SDS011;69132;44.014;20.918;2023-11-21T09:07:41;68.05;;;36.13;;
79664;SDS011;69132;44.014;20.918;2023-11-21T09:10:07;66.43;;;37.15;;
79664;SDS011;69132;44.014;20.918;2023-11-21T09:12:35;66.90;;;37.63;;
79664;SDS011;69132;44.014;20.918;2023-11-21T09:15:02;59.97;;;33.50;;
79664;SDS011;69132;44.014;20.918;2023-11-21T09:20:20;54.55;;;28.95;;
79664;SDS011;69132;44.014;20.918;2023-11-21T09:22:48;42.08;;;25.08;;
79664;SDS011;69132;44.014;20.918;2023-11-21T09:25:14;43.28;;;24.33;;
79664;SDS011;69132;44.014;20.918;2023-11-21T09:27:41;38.95;;;23.95;;
79664;SDS011;69132;44.014;20.918;2023-11-21T09:30:07;38.85;;;22.90;;
79664;SDS011;69132;44.014;20.918;2023-11-21T09:32:37;43.28;;;23.73;;
79664;SDS011;69132;44.014;20.918;2023-11-21T09:35:04;39.15;;;22.90;;
79664;SDS011;69132;44.014;20.918;2023-11-21T09:37:33;43.08;;;24.92;;
79664;SDS011;69132;44.014;20.918;2023-11-21T09:40:04;37.05;;;23.35;;
79664;SDS011;69132;44.014;20.918;2023-11-21T09:42:40;37.78;;;22.98;;
79664;SDS011;69132;44.014;20.918;2023-11-21T09:45:18;40.63;;;22.70;;
79664;SDS011;69132;44.014;20.918;2023-11-21T09:47:48;32.42;;;20.67;;
79664;SDS011;69132;44.014;20.918;2023-11-21T09:50:16;38.90;;;23.52;;
79664;SDS011;69132;44.014;20.918;2023-11-21T09:55:32;35.72;;;19.38;;
79664;SDS011;69132;44.014;20.918;2023-11-21T09:58:02;32.88;;;20.38;;
79664;SDS011;69132;44.014;20.918;2023-11-21T10:00:28;35.53;;;19.55;;
79664;SDS011;69132;44.014;20.918;2023-11-21T10:02:58;35.38;;;22.25;;
79664;SDS011;69132;44.014;20.918;2023-11-21T10:05:27;42.67;;;25.77;;
79664;SDS011;69132;44.014;20.918;2023-11-21T10:07:53;41.33;;;25.85;;
79664;SDS011;69132;44.014;20.918;2023-11-21T10:12:55;47.33;;;25.50;;
79664;SDS011;69132;44.014;20.918;2023-11-21T10:15:22;41.20;;;23.48;;
79664;SDS011;69132;44.014;20.918;2023-11-21T10:17:52;37.28;;;24.67;;
79664;SDS011;69132;44.014;20.918;2023-11-21T10:20:22;39.10;;;23.30;;
79664;SDS011;69132;44.014;20.918;2023-11-21T10:22:50;39.40;;;22.77;;
79664;SDS011;69132;44.014;20.918;2023-11-21T10:25:16;40.45;;;24.70;;
79664;SDS011;69132;44.014;20.918;2023-11-21T10:27:47;44.72;;;23.73;;
79664;SDS011;69132;44.014;20.918;2023-11-21T10:30:15;41.17;;;26.88;;
79664;SDS011;69132;44.014;20.918;2023-11-21T10:32:41;42.75;;;25.88;;
79664;SDS011;69132;44.014;20.918;2023-11-21T10:35:09;44.55;;;26.05;;
79664;SDS011;69132;44.014;20.918;2023-11-21T10:37:36;42.10;;;25.95;;
79664;SDS011;69132;44.014;20.918;2023-11-21T10:40:09;43.65;;;24.52;;
79664;SDS011;69132;44.014;20.918;2023-11-21T10:42:37;41.20;;;23.98;;
79664;SDS011;69132;44.014;20.918;2023-11-21T10:45:04;36.83;;;23.98;;
79664;SDS011;69132;44.014;20.918;2023-11-21T10:47:37;37.85;;;23.60;;
79664;SDS011;69132;44.014;20.918;2023-11-21T10:50:04;41.53;;;25.13;;
79664;SDS011;69132;44.014;20.918;2023-11-21T10:52:30;39.78;;;23.60;;
79664;SDS011;69132;44.014;20.918;2023-11-21T10:54:56;38.60;;;24.40;;
79664;SDS011;69132;44.014;20.918;2023-11-21T10:57:24;43.42;;;24.83;;
79664;SDS011;69132;44.014;20.918;2023-11-21T10:59:51;43.38;;;24.60;;
79664;SDS011;69132;44.014;20.918;2023-11-21T11:04:48;41.78;;;23.05;;
79664;SDS011;69132;44.014;20.918;2023-11-21T11:07:15;39.20;;;24.40;;
79664;SDS011;69132;44.014;20.918;2023-11-21T11:09:42;49.60;;;27.40;;
79664;SDS011;69132;44.014;20.918;2023-11-21T11:12:10;52.08;;;27.08;;
79664;SDS011;69132;44.014;20.918;2023-11-21T11:14:36;49.33;;;27.83;;
79664;SDS011;69132;44.014;20.918;2023-11-21T11:17:04;47.58;;;26.83;;
79664;SDS011;69132;44.014;20.918;2023-11-21T11:19:30;46.67;;;28.52;;
79664;SDS011;69132;44.014;20.918;2023-11-21T11:30:06;42.53;;;24.87;;
79664;SDS011;69132;44.014;20.918;2023-11-21T11:38:07;37.22;;;23.00;;
79664;SDS011;69132;44.014;20.918;2023-11-21T11:40:39;40.42;;;23.98;;
79664;SDS011;69132;44.014;20.918;2023-11-21T11:43:08;42.88;;;23.70;;
79664;SDS011;69132;44.014;20.918;2023-11-21T11:45:34;37.47;;;22.80;;
79664;SDS011;69132;44.014;20.918;2023-11-21T11:48:05;37.78;;;23.58;;
79664;SDS011;69132;44.014;20.918;2023-11-21T11:50:31;38.30;;;23.27;;
79664;SDS011;69132;44.014;20.918;2023-11-21T11:53:19;36.53;;;21.65;;
79664;SDS011;69132;44.014;20.918;2023-11-21T11:55:44;35.05;;;22.27;;
79664;SDS011;69132;44.014;20.918;2023-11-21T11:58:10;40.72;;;24.58;;
79664;SDS011;69132;44.014;20.918;2023-11-21T12:00:37;45.95;;;26.67;;
79664;SDS011;69132;44.014;20.918;2023-11-21T12:03:05;55.67;;;32.80;;
79664;SDS011;69132;44.014;20.918;2023-11-21T12:05:33;57.83;;;36.13;;
79664;SDS011;69132;44.014;20.918;2023-11-21T12:08:07;60.45;;;37.08;;
79664;SDS011;69132;44.014;20.918;2023-11-21T12:10:34;61.45;;;33.95;;
79664;SDS011;69132;44.014;20.918;2023-11-21T12:13:02;53.08;;;34.05;;
79664;SDS011;69132;44.014;20.918;2023-11-21T12:15:33;63.97;;;36.80;;
79664;SDS011;69132;44.014;20.918;2023-11-21T12:18:00;60.17;;;35.03;;
79664;SDS011;69132;44.014;20.918;2023-11-21T12:20:26;53.85;;;30.60;;
79664;SDS011;69132;44.014;20.918;2023-11-21T12:22:53;46.22;;;28.65;;
79664;SDS011;69132;44.014;20.918;2023-11-21T12:25:29;46.05;;;28.27;;
79664;SDS011;69132;44.014;20.918;2023-11-21T12:27:58;41.92;;;26.92;;
79664;SDS011;69132;44.014;20.918;2023-11-21T12:30:25;49.97;;;30.70;;
79664;SDS011;69132;44.014;20.918;2023-11-21T12:32:54;48.08;;;32.47;;
79664;SDS011;69132;44.014;20.918;2023-11-21T12:35:27;56.15;;;31.63;;
79664;SDS011;69132;44.014;20.918;2023-11-21T12:37:56;57.30;;;33.15;;
79664;SDS011;69132;44.014;20.918;2023-11-21T12:40:24;62.20;;;36.47;;
79664;SDS011;69132;44.014;20.918;2023-11-21T12:42:52;64.65;;;39.05;;
79664;SDS011;69132;44.014;20.918;2023-11-21T12:45:23;67.03;;;38.63;;
79664;SDS011;69132;44.014;20.918;2023-11-21T12:48:02;71.68;;;41.22;;
79664;SDS011;69132;44.014;20.918;2023-11-21T12:50:32;64.25;;;39.42;;
79664;SDS011;69132;44.014;20.918;2023-11-21T12:53:02;69.45;;;39.38;;
79664;SDS011;69132;44.014;20.918;2023-11-21T12:55:35;69.40;;;39.83;;
79664;SDS011;69132;44.014;20.918;2023-11-21T12:58:05;66.25;;;38.22;;
79664;SDS011;69132;44.014;20.918;2023-11-21T13:00:52;57.70;;;32.88;;
79664;SDS011;69132;44.014;20.918;2023-11-21T13:03:19;57.85;;;35.95;;
79664;SDS011;69132;44.014;20.918;2023-11-21T13:05:50;66.38;;;40.67;;
79664;SDS011;69132;44.014;20.918;2023-11-21T13:08:19;67.73;;;38.43;;
79664;SDS011;69132;44.014;20.918;2023-11-21T13:10:48;59.08;;;36.88;;
79664;SDS011;69132;44.014;20.918;2023-11-21T13:13:14;53.65;;;33.33;;
79664;SDS011;69132;44.014;20.918;2023-11-21T13:15:47;60.20;;;35.17;;
79664;SDS011;69132;44.014;20.918;2023-11-21T13:18:13;53.40;;;32.80;;
79664;SDS011;69132;44.014;20.918;2023-11-21T13:20:40;53.08;;;31.40;;
79664;SDS011;69132;44.014;20.918;2023-11-21T13:23:08;38.47;;;25.05;;
79664;SDS011;69132;44.014;20.918;2023-11-21T13:25:37;50.15;;;26.48;;
79664;SDS011;69132;44.014;20.918;2023-11-21T13:28:06;43.38;;;26.08;;
79664;SDS011;69132;44.014;20.918;2023-11-21T13:30:32;36.38;;;21.65;;
79664;SDS011;69132;44.014;20.918;2023-11-21T13:33:00;25.25;;;17.02;;
79664;SDS011;69132;44.014;20.918;2023-11-21T13:35:34;15.05;;;9.70;;
79664;SDS011;69132;44.014;20.918;2023-11-21T13:38:13;14.02;;;9.25;;
79664;SDS011;69132;44.014;20.918;2023-11-21T13:40:40;20.38;;;10.18;;
79664;SDS011;69132;44.014;20.918;2023-11-21T13:43:11;17.48;;;10.02;;
79664;SDS011;69132;44.014;20.918;2023-11-21T13:45:38;18.20;;;10.55;;
79664;SDS011;69132;44.014;20.918;2023-11-21T13:48:06;15.13;;;10.07;;
79664;SDS011;69132;44.014;20.918;2023-11-21T13:50:38;13.32;;;8.52;;
79664;SDS011;69132;44.014;20.918;2023-11-21T13:53:24;15.73;;;7.78;;
79664;SDS011;69132;44.014;20.918;2023-11-21T13:55:50;12.27;;;8.02;;
79664;SDS011;69132;44.014;20.918;2023-11-21T13:58:19;13.77;;;8.32;;
79664;SDS011;69132;44.014;20.918;2023-11-21T14:00:51;15.55;;;9.80;;
79664;SDS011;69132;44.014;20.918;2023-11-21T14:03:26;14.70;;;8.15;;
79664;SDS011;69132;44.014;20.918;2023-11-21T14:06:07;11.98;;;7.40;;
79664;SDS011;69132;44.014;20.918;2023-11-21T14:08:40;12.50;;;7.35;;
79664;SDS011;69132;44.014;20.918;2023-11-21T14:11:06;10.15;;;6.50;;
79664;SDS011;69132;44.014;20.918;2023-11-21T14:13:32;9.35;;;6.50;;
79664;SDS011;69132;44.014;20.918;2023-11-21T14:15:58;10.93;;;6.22;;
79664;SDS011;69132;44.014;20.918;2023-11-21T14:18:27;10.82;;;6.75;;
79664;SDS011;69132;44.014;20.918;2023-11-21T14:21:06;11.75;;;8.00;;
79664;SDS011;69132;44.014;20.918;2023-11-21T14:23:35;12.20;;;7.35;;
79664;SDS011;69132;44.014;20.918;2023-11-21T14:26:04;11.90;;;8.15;;
79664;SDS011;69132;44.014;20.918;2023-11-21T14:28:33;12.95;;;8.40;;
79664;SDS011;69132;44.014;20.918;2023-11-21T14:31:00;17.50;;;11.20;;
79664;SDS011;69132;44.014;20.918;2023-11-21T14:33:28;17.67;;;11.25;;
79664;SDS011;69132;44.014;20.918;2023-11-21T14:35:57;14.38;;;9.52;;
79664;SDS011;69132;44.014;20.918;2023-11-21T14:38:24;16.33;;;10.43;;
79664;SDS011;69132;44.014;20.918;2023-11-21T14:40:50;17.80;;;11.60;;
79664;SDS011;69132;44.014;20.918;2023-11-21T14:43:16;20.50;;;12.63;;
79664;SDS011;69132;44.014;20.918;2023-11-21T14:45:44;24.80;;;13.90;;
79664;SDS011;69132;44.014;20.918;2023-11-21T14:48:10;18.95;;;13.50;;
79664;SDS011;69132;44.014;20.918;2023-11-21T14:50:56;20.05;;;12.70;;
79664;SDS011;69132;44.014;20.918;2023-11-21T14:53:43;26.38;;;13.80;;
79664;SDS011;69132;44.014;20.918;2023-11-21T14:56:22;26.23;;;15.05;;
79664;SDS011;69132;44.014;20.918;2023-11-21T14:58:55;37.00;;;20.65;;
79664;SDS011;69132;44.014;20.918;2023-11-21T15:01:23;43.65;;;24.45;;
79664;SDS011;69132;44.014;20.918;2023-11-21T15:04:15;47.20;;;26.35;;
79664;SDS011;69132;44.014;20.918;2023-11-21T15:06:53;54.88;;;32.42;;
79664;SDS011;69132;44.014;20.918;2023-11-21T15:09:23;46.97;;;29.90;;
79664;SDS011;69132;44.014;20.918;2023-11-21T15:12:01;47.38;;;30.67;;
79664;SDS011;69132;44.014;20.918;2023-11-21T15:14:50;48.63;;;28.92;;
79664;SDS011;69132;44.014;20.918;2023-11-21T15:17:21;35.65;;;22.33;;
79664;SDS011;69132;44.014;20.918;2023-11-21T15:19:57;36.97;;;23.23;;